Time;durP1;ratioP1;P1;durP2;ratioP2;P2;SDS_P1;SDS_P2;PMS_P1;PMS_P2;Temp;Humidity;BMP_temperature;BMP_pressure;BME280_temperature;BME280_humidity;BME280_pressure;Samples;Min_cycle;Max_cycle;Signal;HPM_P1;HPM_P2
2022/07/29 00:00:14;;;;;;;1.35;1.30;;;27.00;50.60;;;;;;5086775;28;20044;-64
2022/07/29 00:02:41;;;;;;;1.25;1.10;;;27.00;50.60;;;;;;5082782;28;20334;-63
2022/07/29 00:05:09;;;;;;;1.50;1.40;;;27.00;50.70;;;;;;5088276;28;20399;-64
2022/07/29 00:07:36;;;;;;;1.33;1.33;;;27.00;50.60;;;;;;5086339;28;20424;-64
2022/07/29 00:10:04;;;;;;;1.42;1.33;;;27.00;50.70;;;;;;5087614;28;20044;-64
2022/07/29 00:12:31;;;;;;;1.17;1.17;;;27.00;50.70;;;;;;5087496;28;20076;-63
2022/07/29 00:14:58;;;;;;;1.38;1.27;;;27.00;50.70;;;;;;5087759;28;20105;-63
2022/07/29 00:17:26;;;;;;;1.42;1.42;;;27.00;50.70;;;;;;5087700;28;20155;-63
2022/07/29 00:19:53;;;;;;;1.55;1.45;;;26.90;50.60;;;;;;5087483;28;20055;-63
2022/07/29 00:22:20;;;;;;;1.40;1.30;;;27.00;50.70;;;;;;5087445;28;20090;-63
2022/07/29 00:24:49;;;;;;;1.50;1.48;;;27.00;50.80;;;;;;5087810;28;20040;-63
2022/07/29 00:27:17;;;;;;;1.95;1.33;;;26.90;50.70;;;;;;5086622;28;20040;-63
2022/07/29 00:29:44;;;;;;;1.83;1.50;;;27.00;50.80;;;;;;5086562;28;20040;-63
2022/07/29 00:32:12;;;;;;;1.42;1.42;;;26.90;50.70;;;;;;5087554;28;20328;-63
2022/07/29 00:37:26;;;;;;;1.35;1.25;;;26.90;50.70;;;;;;5087509;28;20125;-63
2022/07/29 00:39:53;;;;;;;1.50;1.40;;;26.90;50.70;;;;;;5087024;28;20101;-63
2022/07/29 00:42:20;;;;;;;1.38;1.10;;;26.90;50.80;;;;;;5087626;28;20362;-63
2022/07/29 00:44:47;;;;;;;1.58;1.48;;;26.90;50.70;;;;;;5086797;28;20052;-64
2022/07/29 00:47:15;;;;;;;1.60;1.50;;;26.90;50.80;;;;;;5087225;28;20074;-63
2022/07/29 00:49:42;;;;;;;1.02;1.02;;;26.90;50.80;;;;;;5086439;28;20048;-63
2022/07/29 00:52:10;;;;;;;1.10;1.10;;;26.90;50.80;;;;;;5086798;28;20520;-63
2022/07/29 00:54:39;;;;;;;1.48;1.48;;;26.90;50.80;;;;;;5086619;28;20536;-63
2022/07/29 00:57:12;;;;;;;1.50;1.40;;;26.90;50.80;;;;;;5085692;28;20536;-63
2022/07/29 00:59:39;;;;;;;1.42;1.33;;;26.90;50.80;;;;;;5086536;28;20052;-62
2022/07/29 01:02:06;;;;;;;1.40;1.38;;;26.90;50.80;;;;;;5086755;28;20044;-63
2022/07/29 01:04:34;;;;;;;1.20;1.17;;;26.90;50.90;;;;;;5086547;28;20048;-63
2022/07/29 01:07:02;;;;;;;1.42;1.33;;;26.90;50.90;;;;;;5082422;28;20048;-63
2022/07/29 01:09:32;;;;;;;1.35;1.27;;;26.80;50.90;;;;;;5086832;28;20043;-63
2022/07/29 01:12:19;;;;;;;1.25;1.25;;;26.80;50.90;;;;;;5087219;28;20415;-63
2022/07/29 01:14:48;;;;;;;1.30;1.30;;;26.90;50.90;;;;;;5086054;28;20139;-63
2022/07/29 01:17:41;;;;;;;1.52;1.42;;;26.90;50.90;;;;;;5086593;28;20554;-63
2022/07/29 01:20:58;;;;;;;1.10;1.10;;;26.90;50.90;;;;;;5086121;28;20052;-63
2022/07/29 01:23:58;;;;;;;1.60;1.50;;;26.90;50.90;;;;;;5086360;28;20101;-63
2022/07/29 01:26:46;;;;;;;1.05;1.05;;;26.80;50.80;;;;;;5086654;28;20093;-62
2022/07/29 01:29:28;;;;;;;1.87;1.60;;;26.90;50.90;;;;;;5084986;28;20080;-63
2022/07/29 01:32:10;;;;;;;1.33;1.23;;;26.80;50.80;;;;;;5086466;28;20044;-63
2022/07/29 01:35:04;;;;;;;1.33;1.30;;;26.90;50.90;;;;;;5086100;28;20048;-63
2022/07/29 01:38:10;;;;;;;2.33;1.40;;;26.90;50.90;;;;;;5081621;28;20113;-63
2022/07/29 01:40:52;;;;;;;1.08;1.08;;;26.80;50.80;;;;;;5085279;28;20090;-63
2022/07/29 01:43:27;;;;;;;1.50;1.40;;;26.90;50.90;;;;;;5085837;28;20502;-63
2022/07/29 01:46:02;;;;;;;1.67;1.58;;;26.80;50.80;;;;;;5084588;28;20172;-63
2022/07/29 01:48:42;;;;;;;1.20;1.20;;;26.90;50.90;;;;;;5086198;28;20136;-63
2022/07/29 01:51:32;;;;;;;1.23;1.20;;;26.90;50.90;;;;;;5085672;28;20199;-63
2022/07/29 01:54:20;;;;;;;1.40;1.30;;;26.90;50.90;;;;;;5085694;28;20047;-63
2022/07/29 01:56:50;;;;;;;0.98;0.98;;;26.80;50.90;;;;;;5086012;28;20105;-63
2022/07/29 01:59:18;;;;;;;1.10;1.10;;;26.80;50.90;;;;;;5085506;28;20185;-63
2022/07/29 02:01:49;;;;;;;1.23;1.23;;;26.80;50.90;;;;;;5086076;28;20052;-63
2022/07/29 02:04:21;;;;;;;1.40;1.30;;;26.80;50.90;;;;;;5085364;28;20052;-63
2022/07/29 02:07:01;;;;;;;1.08;1.08;;;26.90;50.90;;;;;;5084643;28;20348;-63
2022/07/29 02:09:30;;;;;;;1.45;1.35;;;26.80;50.90;;;;;;5080874;28;20500;-63
2022/07/29 02:12:01;;;;;;;1.27;1.20;;;26.80;50.90;;;;;;5085894;28;20044;-63
2022/07/29 02:14:31;;;;;;;1.10;1.10;;;26.80;50.90;;;;;;5085763;28;20090;-63
2022/07/29 02:17:01;;;;;;;1.52;1.42;;;26.80;50.90;;;;;;5084887;28;20079;-63
2022/07/29 02:19:30;;;;;;;;;;;26.80;50.90;;;;;;5084909;28;20044;-63
2022/07/29 02:21:59;;;;;;;1.08;1.08;;;26.80;50.90;;;;;;5085188;28;19962;-63
2022/07/29 02:24:28;;;;;;;1.20;1.20;;;26.80;50.90;;;;;;5085430;28;20083;-63
2022/07/29 02:26:58;;;;;;;1.10;0.98;;;26.80;50.90;;;;;;5083924;28;20044;-63
2022/07/29 02:29:26;;;;;;;;;;;26.80;50.90;;;;;;5086261;28;20101;-63
2022/07/29 02:31:55;;;;;;;1.15;1.10;;;26.80;50.90;;;;;;5085663;28;20026;-63
2022/07/29 02:34:24;;;;;;;1.02;1.02;;;26.80;50.90;;;;;;5085646;28;20493;-63
2022/07/29 02:36:54;;;;;;;1.40;1.40;;;26.80;50.90;;;;;;5085308;28;20264;-63
2022/07/29 02:39:24;;;;;;;1.17;1.17;;;26.80;51.00;;;;;;5082087;28;20288;-63
2022/07/29 02:41:57;;;;;;;1.48;1.38;;;26.80;51.00;;;;;;5081824;28;20101;-63
2022/07/29 02:44:25;;;;;;;1.02;1.02;;;26.80;51.00;;;;;;5084498;28;20101;-63
2022/07/29 02:47:19;;;;;;;1.25;1.20;;;26.80;51.00;;;;;;5084838;28;20048;-63
2022/07/29 02:50:04;;;;;;;1.30;1.30;;;26.80;51.00;;;;;;5083933;28;20520;-63
2022/07/29 02:53:03;;;;;;;1.10;1.10;;;26.80;51.00;;;;;;5086879;28;20048;-63
2022/07/29 02:55:44;;;;;;;1.33;1.30;;;26.70;50.90;;;;;;5088209;28;20220;-63
2022/07/29 02:58:34;;;;;;;1.20;1.10;;;26.80;50.90;;;;;;5088751;28;20135;-63
2022/07/29 03:01:05;;;;;;;1.65;1.55;;;26.80;50.90;;;;;;5087432;28;20080;-63
2022/07/29 03:03:37;;;;;;;0.88;0.88;;;26.80;50.90;;;;;;5089090;28;20181;-63
2022/07/29 03:06:05;;;;;;;1.55;1.45;;;26.70;50.90;;;;;;5088643;28;20470;-63
2022/07/29 03:08:34;;;;;;;1.00;1.00;;;26.80;50.90;;;;;;5089301;28;20056;-62
2022/07/29 03:11:02;;;;;;;1.48;1.35;;;26.70;50.80;;;;;;5086994;28;20437;-63
2022/07/29 03:13:30;;;;;;;1.20;1.20;;;26.80;50.90;;;;;;5086286;28;20524;-63
2022/07/29 03:15:58;;;;;;;1.42;1.38;;;26.80;50.90;;;;;;5087205;28;20105;-63
2022/07/29 03:18:26;;;;;;;0.80;0.80;;;26.80;50.90;;;;;;5088499;28;20512;-63
2022/07/29 03:20:54;;;;;;;1.20;1.13;;;26.80;50.90;;;;;;5088611;28;20072;-63
2022/07/29 03:23:23;;;;;;;1.20;1.20;;;26.80;50.90;;;;;;5087413;28;20135;-63
2022/07/29 03:25:51;;;;;;;0.90;0.90;;;26.80;50.90;;;;;;5070821;28;20488;-63
2022/07/29 03:28:19;;;;;;;1.23;1.23;;;26.80;50.90;;;;;;5088993;28;20074;-63
2022/07/29 03:30:48;;;;;;;1.15;1.15;;;26.80;50.90;;;;;;5078083;28;20066;-64
2022/07/29 03:33:16;;;;;;;1.23;1.15;;;26.80;50.90;;;;;;5068653;28;20052;-63
2022/07/29 03:35:43;;;;;;;1.20;1.20;;;26.80;50.90;;;;;;5068065;28;20452;-63
2022/07/29 03:38:10;;;;;;;1.45;1.35;;;26.70;50.80;;;;;;5068366;28;20130;-63
2022/07/29 03:40:57;;;;;;;1.10;1.10;;;26.80;50.90;;;;;;5067685;28;20057;-63
2022/07/29 03:43:28;;;;;;;1.05;1.05;;;26.80;50.90;;;;;;5063671;28;20048;-63
2022/07/29 03:45:56;;;;;;;1.15;1.10;;;26.80;50.90;;;;;;5066739;28;20048;-63
2022/07/29 03:48:26;;;;;;;1.30;1.15;;;26.80;50.90;;;;;;5071586;28;20055;-63
2022/07/29 03:50:53;;;;;;;1.10;1.10;;;26.80;50.90;;;;;;5067870;28;20053;-64
2022/07/29 03:53:20;;;;;;;0.88;0.88;;;26.80;50.90;;;;;;5083694;28;20396;-63
2022/07/29 03:55:53;;;;;;;1.08;1.08;;;26.80;50.90;;;;;;5088157;28;20079;-63
2022/07/29 03:58:21;;;;;;;1.25;1.17;;;26.80;50.90;;;;;;5087632;28;20131;-63
2022/07/29 04:00:49;;;;;;;1.27;1.27;;;26.80;50.90;;;;;;5086057;28;20459;-63
2022/07/29 04:03:16;;;;;;;1.23;1.23;;;26.80;50.90;;;;;;5086473;28;20573;-63
2022/07/29 04:05:44;;;;;;;1.10;1.10;;;26.80;50.90;;;;;;5086543;28;20462;-63
2022/07/29 04:08:11;;;;;;;1.52;1.20;;;26.80;50.90;;;;;;5088153;28;20102;-63
2022/07/29 04:10:38;;;;;;;1.25;1.23;;;26.80;50.90;;;;;;5087944;28;20123;-63
2022/07/29 04:13:05;;;;;;;0.88;0.88;;;26.80;50.80;;;;;;5086053;28;20545;-63
2022/07/29 04:15:33;;;;;;;1.70;1.60;;;26.80;50.80;;;;;;5081723;28;20650;-63
2022/07/29 04:18:00;;;;;;;1.25;1.25;;;26.80;50.80;;;;;;5085466;28;20036;-63
2022/07/29 04:20:27;;;;;;;1.75;0.85;;;26.80;50.70;;;;;;5085709;28;20496;-63
2022/07/29 04:22:54;;;;;;;1.27;1.17;;;26.90;50.70;;;;;;5087869;28;20040;-65
2022/07/29 04:25:22;;;;;;;1.10;1.10;;;26.80;50.60;;;;;;5087215;28;20069;-63
2022/07/29 04:28:00;;;;;;;1.17;1.17;;;26.90;50.70;;;;;;5087291;28;20048;-63
2022/07/29 04:30:31;;;;;;;1.50;1.30;;;26.90;50.60;;;;;;5087386;28;20538;-63
2022/07/29 04:33:00;;;;;;;1.00;1.00;;;26.90;50.60;;;;;;5088094;28;20067;-63
2022/07/29 04:35:29;;;;;;;1.20;1.20;;;26.90;50.60;;;;;;5086984;28;20079;-63
2022/07/29 04:38:05;;;;;;;1.35;1.25;;;26.90;51.10;;;;;;5086935;28;20044;-63
2022/07/29 04:40:33;;;;;;;1.08;1.08;;;27.00;50.50;;;;;;5086800;28;20409;-63
2022/07/29 04:43:04;;;;;;;2.78;1.40;;;27.00;50.50;;;;;;5085713;28;20071;-63
2022/07/29 04:45:31;;;;;;;1.42;0.98;;;27.00;50.40;;;;;;5084756;28;20253;-62
2022/07/29 04:47:59;;;;;;;1.15;1.15;;;27.00;50.30;;;;;;5083014;28;20507;-63
2022/07/29 04:50:26;;;;;;;1.50;1.40;;;27.00;50.30;;;;;;5087003;28;20565;-62
2022/07/29 04:52:53;;;;;;;1.30;1.30;;;27.10;50.30;;;;;;5085849;28;20051;-63
2022/07/29 04:55:20;;;;;;;1.80;1.70;;;27.10;50.20;;;;;;5085954;28;20052;-63
2022/07/29 04:57:47;;;;;;;1.33;1.30;;;27.10;50.10;;;;;;5085563;28;20078;-63
2022/07/29 05:00:15;;;;;;;1.30;1.30;;;27.10;50.00;;;;;;5086155;28;20052;-63
2022/07/29 05:02:42;;;;;;;1.15;1.10;;;27.20;50.00;;;;;;5086557;28;20087;-62
2022/07/29 05:05:09;;;;;;;1.50;1.40;;;27.20;49.90;;;;;;5080836;28;20052;-63
2022/07/29 05:07:36;;;;;;;1.40;1.30;;;27.20;49.80;;;;;;5081996;28;20515;-63
2022/07/29 05:10:04;;;;;;;1.70;1.60;;;27.20;49.90;;;;;;5085481;28;20375;-62
2022/07/29 05:12:31;;;;;;;1.42;1.33;;;27.10;49.80;;;;;;5073762;28;20036;-62
2022/07/29 05:14:58;;;;;;;1.65;1.55;;;27.10;50.00;;;;;;5076040;28;20108;-78
2022/07/29 05:17:26;;;;;;;1.67;1.58;;;27.00;50.20;;;;;;5060604;28;20131;-72
2022/07/29 05:19:53;;;;;;;2.20;2.00;;;26.80;50.40;;;;;;5081403;28;20044;-72
2022/07/29 05:22:21;;;;;;;2.03;1.92;;;26.60;50.30;;;;;;5079427;28;20044;-72
2022/07/29 05:24:48;;;;;;;2.92;2.63;;;26.30;50.30;;;;;;5077211;28;20052;-70
2022/07/29 05:27:16;;;;;;;5.45;2.78;;;26.00;50.30;;;;;;5081048;28;20063;-73
2022/07/29 05:29:43;;;;;;;5.38;2.50;;;25.70;50.10;;;;;;5082473;28;20115;-71
2022/07/29 05:32:13;;;;;;;2.80;2.50;;;25.50;49.90;;;;;;5075079;28;20070;-71
2022/07/29 05:34:41;;;;;;;2.75;2.55;;;25.20;49.60;;;;;;5078902;28;20109;-72
2022/07/29 05:37:21;;;;;;;2.97;2.75;;;25.00;49.20;;;;;;5082258;28;20055;-72
2022/07/29 05:39:48;;;;;;;5.95;3.13;;;24.70;49.10;;;;;;5080016;28;20044;-73
2022/07/29 05:42:24;;;;;;;5.60;2.40;;;24.50;50.00;;;;;;5075842;28;20040;-72
2022/07/29 05:44:51;;;;;;;4.90;3.15;;;24.20;49.20;;;;;;5065165;28;20151;-71
2022/07/29 05:47:18;;;;;;;4.65;3.65;;;23.90;48.80;;;;;;5072892;28;20132;-71
2022/07/29 05:49:46;;;;;;;5.97;3.85;;;23.60;49.10;;;;;;5069117;28;20559;-71
2022/07/29 05:52:14;;;;;;;8.57;4.70;;;23.30;49.50;;;;;;5069808;28;20040;-69
2022/07/29 05:54:42;;;;;;;6.13;5.05;;;22.90;50.60;;;;;;5069960;28;20072;-70
2022/07/29 05:57:21;;;;;;;11.48;6.07;;;22.50;50.90;;;;;;5071025;28;20054;-69
2022/07/29 05:59:50;;;;;;;13.40;6.70;;;22.20;53.20;;;;;;5076567;28;20047;-73
2022/07/29 06:02:17;;;;;;;8.57;5.55;;;22.00;54.80;;;;;;5075331;28;20056;-69
2022/07/29 06:04:45;;;;;;;10.50;6.13;;;21.80;54.80;;;;;;5069832;28;20151;-72
2022/07/29 06:07:13;;;;;;;6.43;5.65;;;21.60;55.60;;;;;;5075485;28;20083;-69
2022/07/29 06:09:40;;;;;;;9.82;6.82;;;21.50;56.10;;;;;;5067210;28;20060;-67
2022/07/29 06:12:08;;;;;;;9.02;5.10;;;21.40;56.20;;;;;;5076018;28;21633;-67
2022/07/29 06:14:35;;;;;;;8.80;5.05;;;21.30;57.60;;;;;;5075233;28;20056;-69
2022/07/29 06:17:03;;;;;;;6.63;5.47;;;21.30;58.50;;;;;;5069977;28;20082;-68
2022/07/29 06:19:30;;;;;;;13.05;5.03;;;21.40;57.20;;;;;;5073325;28;20419;-69
2022/07/29 06:21:58;;;;;;;5.93;5.05;;;21.40;58.50;;;;;;5066758;28;20420;-67
2022/07/29 06:24:25;;;;;;;10.40;5.90;;;21.40;57.30;;;;;;5078289;28;20424;-66
2022/07/29 06:26:52;;;;;;;7.07;4.97;;;21.40;56.90;;;;;;5075694;28;20048;-68
2022/07/29 06:29:20;;;;;;;8.85;6.28;;;21.40;57.40;;;;;;5078277;28;20060;-71
2022/07/29 06:31:48;;;;;;;7.95;5.93;;;21.40;57.40;;;;;;5077798;28;20070;-73
2022/07/29 06:34:15;;;;;;;9.60;4.93;;;21.40;56.80;;;;;;5078136;28;20072;-62
2022/07/29 06:36:43;;;;;;;6.07;4.72;;;21.40;56.50;;;;;;5076067;28;20634;-61
2022/07/29 06:39:11;;;;;;;8.45;4.13;;;21.30;56.80;;;;;;5079183;28;20047;-62
2022/07/29 06:41:39;;;;;;;4.90;4.30;;;21.30;56.60;;;;;;5072662;28;20047;-62
2022/07/29 06:44:06;;;;;;;4.32;3.92;;;21.30;56.80;;;;;;5074454;28;20085;-62
2022/07/29 06:46:33;;;;;;;10.23;4.50;;;21.30;57.00;;;;;;5073843;28;20055;-62
2022/07/29 06:49:02;;;;;;;7.00;4.45;;;21.30;56.90;;;;;;5074099;28;20056;-62
2022/07/29 06:51:29;;;;;;;7.55;4.40;;;21.30;57.10;;;;;;5073357;28;20484;-61
2022/07/29 06:53:58;;;;;;;7.03;4.68;;;21.30;57.30;;;;;;5070705;28;20052;-63
2022/07/29 06:56:31;;;;;;;5.45;4.10;;;21.30;57.30;;;;;;5076107;28;20059;-62
2022/07/29 06:59:07;;;;;;;6.68;4.50;;;21.30;57.50;;;;;;5075419;28;20082;-60
2022/07/29 07:01:40;;;;;;;5.22;4.22;;;21.20;57.60;;;;;;5077499;28;20044;-62
2022/07/29 07:04:11;;;;;;;7.45;4.03;;;21.20;57.50;;;;;;5073578;28;20040;-62
2022/07/29 07:06:39;;;;;;;7.15;4.20;;;21.20;57.60;;;;;;5074712;28;21473;-62
2022/07/29 07:09:06;;;;;;;9.60;5.05;;;21.30;57.60;;;;;;5077797;28;20137;-63
2022/07/29 07:11:34;;;;;;;9.02;4.10;;;21.30;57.90;;;;;;5074650;28;20158;-63
2022/07/29 07:14:01;;;;;;;6.80;4.10;;;21.30;57.60;;;;;;5077018;28;20097;-63
2022/07/29 07:16:31;;;;;;;7.15;3.90;;;21.30;57.80;;;;;;5077326;28;20044;-62
2022/07/29 07:18:58;;;;;;;10.48;4.88;;;21.30;58.30;;;;;;5076048;28;20060;-62
2022/07/29 07:21:26;;;;;;;6.97;4.25;;;21.30;58.40;;;;;;5070289;28;20048;-59
2022/07/29 07:23:57;;;;;;;7.35;4.40;;;21.30;58.70;;;;;;5065368;28;20047;-59
2022/07/29 07:26:25;;;;;;;6.35;4.25;;;21.40;59.00;;;;;;5073158;28;20110;-59
2022/07/29 07:28:52;;;;;;;7.10;4.13;;;21.40;59.00;;;;;;5078154;28;20713;-59
2022/07/29 07:31:19;;;;;;;6.43;4.22;;;21.50;59.50;;;;;;5076658;28;20075;-59
2022/07/29 07:33:47;;;;;;;8.52;4.65;;;21.50;59.40;;;;;;5075420;28;20105;-61
2022/07/29 07:36:15;;;;;;;8.77;4.70;;;21.50;59.50;;;;;;5076534;28;20098;-58
2022/07/29 07:38:42;;;;;;;7.55;4.18;;;21.50;59.80;;;;;;5067220;28;20489;-59
2022/07/29 07:41:09;;;;;;;6.78;4.57;;;21.60;59.80;;;;;;5081815;28;20051;-59
2022/07/29 07:43:37;;;;;;;7.03;4.38;;;21.60;59.60;;;;;;5078868;28;20036;-60
2022/07/29 07:46:04;;;;;;;13.02;4.03;;;21.70;59.70;;;;;;5078522;28;20052;-60
2022/07/29 07:48:34;;;;;;;4.65;3.90;;;21.70;59.80;;;;;;5083981;28;20051;-60
2022/07/29 07:51:01;;;;;;;7.87;4.40;;;21.80;59.50;;;;;;5076462;28;20047;-59
2022/07/29 07:53:29;;;;;;;5.65;3.55;;;21.90;59.20;;;;;;5076438;28;20036;-59
2022/07/29 07:55:58;;;;;;;5.45;4.00;;;21.90;59.40;;;;;;5066900;28;20127;-59
2022/07/29 07:58:38;;;;;;;5.85;4.25;;;21.90;59.00;;;;;;5075299;28;20072;-59
2022/07/29 08:01:06;;;;;;;5.30;4.22;;;21.90;59.40;;;;;;5073345;28;20040;-59
2022/07/29 08:03:33;;;;;;;5.10;4.03;;;21.90;59.40;;;;;;5079344;28;20523;-60
2022/07/29 08:06:00;;;;;;;6.10;4.60;;;21.90;59.00;;;;;;5080406;28;20040;-59
2022/07/29 08:08:28;;;;;;;7.20;4.22;;;21.90;59.10;;;;;;5077926;28;20055;-59
2022/07/29 08:10:56;;;;;;;4.65;4.15;;;21.90;59.00;;;;;;5076290;28;20480;-59
2022/07/29 08:13:27;;;;;;;5.00;3.88;;;21.90;59.40;;;;;;5076258;28;20078;-59
2022/07/29 08:15:57;;;;;;;6.63;4.85;;;21.90;59.30;;;;;;5082219;28;20052;-59
2022/07/29 08:18:26;;;;;;;7.70;4.50;;;21.90;59.30;;;;;;5082753;28;21877;-60
2022/07/29 08:20:53;;;;;;;8.30;3.92;;;21.90;59.10;;;;;;5078497;28;20138;-59
2022/07/29 08:23:21;;;;;;;4.45;3.70;;;21.90;59.10;;;;;;5080316;28;20072;-59
2022/07/29 08:25:48;;;;;;;4.65;3.88;;;22.00;59.00;;;;;;5079710;28;20125;-59
2022/07/29 08:28:16;;;;;;;7.20;4.07;;;21.90;58.90;;;;;;5077239;28;20052;-59
2022/07/29 08:30:44;;;;;;;4.78;3.67;;;21.90;58.50;;;;;;5080872;28;20492;-60
2022/07/29 08:33:13;;;;;;;5.22;4.03;;;21.90;58.50;;;;;;5077578;28;20104;-59
2022/07/29 08:35:40;;;;;;;8.18;4.32;;;21.90;58.30;;;;;;5081211;28;20075;-61
2022/07/29 08:38:08;;;;;;;3.78;3.47;;;21.90;58.40;;;;;;5071997;28;20055;-60
2022/07/29 08:40:35;;;;;;;4.82;3.70;;;21.80;58.20;;;;;;5078636;28;20052;-60
2022/07/29 08:43:07;;;;;;;5.63;3.65;;;21.80;58.10;;;;;;5082374;28;20048;-60
2022/07/29 08:45:46;;;;;;;6.00;3.53;;;21.80;58.40;;;;;;5073464;28;20484;-61
2022/07/29 08:48:22;;;;;;;5.90;3.67;;;21.80;58.30;;;;;;5078385;28;20072;-59
2022/07/29 08:50:56;;;;;;;3.58;3.28;;;21.80;58.50;;;;;;5078307;28;20055;-61
2022/07/29 08:53:28;;;;;;;3.92;3.63;;;21.80;59.00;;;;;;5077640;28;20071;-61
2022/07/29 08:55:55;;;;;;;;;;;21.70;59.30;;;;;;5080002;28;20055;-60
2022/07/29 08:58:25;;;;;;;3.97;3.42;;;21.70;59.20;;;;;;5058632;28;19939;-60
2022/07/29 09:00:55;;;;;;;6.43;3.80;;;21.70;59.40;;;;;;5077454;28;20145;-61
2022/07/29 09:03:27;;;;;;;6.60;3.63;;;21.80;59.10;;;;;;5075844;28;20105;-61
2022/07/29 09:05:54;;;;;;;6.03;4.20;;;21.80;59.00;;;;;;5076533;28;20051;-61
2022/07/29 09:08:23;;;;;;;6.25;3.70;;;21.80;58.90;;;;;;5081880;28;20106;-60
2022/07/29 09:10:51;;;;;;;6.00;3.90;;;21.80;58.50;;;;;;5075456;28;20188;-60
2022/07/29 09:13:18;;;;;;;8.00;3.60;;;21.80;58.30;;;;;;5075939;28;20135;-61
2022/07/29 09:15:45;;;;;;;3.55;3.22;;;21.80;58.50;;;;;;5075606;28;20510;-60
2022/07/29 09:18:24;;;;;;;4.20;3.63;;;21.90;58.10;;;;;;5069344;28;20405;-60
2022/07/29 09:24:06;;;;;;;6.15;3.88;;;22.00;60.40;;;;;;5076041;28;20122;-61
2022/07/29 09:26:37;;;;;;;4.38;3.65;;;22.20;60.10;;;;;;5076219;28;20048;-59
2022/07/29 09:29:15;;;;;;;5.07;3.20;;;22.50;59.40;;;;;;5075622;28;20048;-61
2022/07/29 09:31:45;;;;;;;5.35;3.63;;;22.70;58.70;;;;;;5073852;28;20451;-60
2022/07/29 09:34:29;;;;;;;3.67;3.38;;;22.90;58.20;;;;;;5070789;28;20381;-59
2022/07/29 09:36:56;;;;;;;3.67;3.30;;;23.00;57.90;;;;;;5072248;28;20044;-60
2022/07/29 09:39:45;;;;;;;3.35;2.97;;;23.10;57.90;;;;;;5077057;28;20058;-59
2022/07/29 09:42:13;;;;;;;6.63;3.53;;;23.20;57.50;;;;;;5074053;28;20143;-59
2022/07/29 09:44:50;;;;;;;4.20;3.38;;;23.30;57.20;;;;;;5075274;28;20063;-59
2022/07/29 09:47:18;;;;;;;6.00;3.60;;;23.40;56.90;;;;;;5078570;28;20459;-60
2022/07/29 09:49:59;;;;;;;3.67;3.05;;;23.50;56.60;;;;;;5078127;28;20113;-59
2022/07/29 09:52:28;;;;;;;3.83;3.45;;;23.60;56.30;;;;;;5077532;28;20462;-60
2022/07/29 09:55:07;;;;;;;3.20;2.95;;;23.60;56.10;;;;;;5080396;28;20044;-60
2022/07/29 09:57:35;;;;;;;3.87;3.47;;;23.60;55.80;;;;;;5076734;28;20068;-59
2022/07/29 10:00:09;;;;;;;3.63;2.90;;;23.60;55.60;;;;;;5079176;28;20068;-60
2022/07/29 10:02:39;;;;;;;3.65;3.25;;;23.60;55.40;;;;;;5071982;28;20048;-60
2022/07/29 10:05:18;;;;;;;6.15;2.88;;;23.70;55.20;;;;;;5079441;28;20585;-59
2022/07/29 10:07:51;;;;;;;3.85;3.38;;;23.60;55.00;;;;;;5082110;28;20039;-59
2022/07/29 10:10:29;;;;;;;3.47;3.20;;;23.70;54.70;;;;;;5080834;28;20127;-59
2022/07/29 10:13:04;;;;;;;3.13;2.83;;;23.60;54.60;;;;;;5075872;28;20500;-62
2022/07/29 10:15:44;;;;;;;8.30;3.05;;;23.60;54.50;;;;;;5078179;28;20137;-59
2022/07/29 10:18:14;;;;;;;3.08;2.83;;;23.60;54.30;;;;;;5079729;28;20119;-60
2022/07/29 10:20:41;;;;;;;3.83;3.35;;;23.60;54.70;;;;;;5079942;28;20135;-63
2022/07/29 10:23:09;;;;;;;4.15;3.40;;;23.60;54.00;;;;;;5076308;28;20079;-60
2022/07/29 10:25:37;;;;;;;6.03;3.05;;;23.60;53.90;;;;;;5077182;28;20454;-60
2022/07/29 10:28:06;;;;;;;2.90;2.70;;;23.60;54.00;;;;;;5082819;28;20484;-60
2022/07/29 10:30:34;;;;;;;5.82;3.22;;;23.60;54.10;;;;;;5082362;28;20458;-59
2022/07/29 10:33:36;;;;;;;4.50;3.15;;;23.60;54.00;;;;;;5078936;28;20040;-59
2022/07/29 10:36:27;;;;;;;3.65;3.30;;;23.60;53.80;;;;;;5080234;28;20041;-60
2022/07/29 10:39:08;;;;;;;3.40;3.10;;;23.60;53.90;;;;;;5077288;28;20056;-60
2022/07/29 10:42:06;;;;;;;4.30;3.00;;;23.60;54.00;;;;;;5080056;28;20055;-59
2022/07/29 10:44:39;;;;;;;3.08;2.85;;;23.60;53.90;;;;;;5073922;28;20142;-59
2022/07/29 10:47:07;;;;;;;3.40;3.08;;;23.60;53.90;;;;;;5080601;28;20557;-60
2022/07/29 10:49:36;;;;;;;3.22;2.90;;;23.60;53.90;;;;;;5078206;28;20500;-60
2022/07/29 10:52:12;;;;;;;3.35;3.03;;;23.60;53.80;;;;;;5075742;28;20059;-59
2022/07/29 10:54:48;;;;;;;3.75;3.30;;;23.60;53.80;;;;;;5080358;28;20044;-59
2022/07/29 10:57:31;;;;;;;3.20;2.95;;;23.60;53.80;;;;;;5074417;28;20056;-60
2022/07/29 11:00:28;;;;;;;5.93;3.40;;;23.60;53.80;;;;;;5075640;28;20040;-59
2022/07/29 11:02:57;;;;;;;4.30;3.55;;;23.60;53.90;;;;;;5075442;28;20044;-59
2022/07/29 11:05:29;;;;;;;2.80;2.60;;;23.60;53.90;;;;;;5070365;28;20052;-59
2022/07/29 11:08:21;;;;;;;3.33;3.10;;;23.60;54.00;;;;;;5071522;28;20063;-59
2022/07/29 11:11:31;;;;;;;3.78;2.90;;;23.60;54.30;;;;;;5073036;28;20156;-59
2022/07/29 11:14:00;;;;;;;3.10;2.90;;;23.60;54.30;;;;;;5078345;28;20546;-59
2022/07/29 11:17:03;;;;;;;3.70;3.40;;;23.70;54.40;;;;;;5081090;28;20056;-58
2022/07/29 11:19:34;;;;;;;3.15;2.90;;;23.70;54.20;;;;;;5079214;28;20391;-59
2022/07/29 11:22:02;;;;;;;3.28;3.00;;;23.70;54.30;;;;;;5078046;28;20076;-59
2022/07/29 11:24:34;;;;;;;3.38;3.08;;;23.70;54.30;;;;;;5072993;28;20484;-59
2022/07/29 11:27:22;;;;;;;3.95;3.55;;;23.80;54.20;;;;;;5084398;28;21512;-60
2022/07/29 11:29:56;;;;;;;3.17;2.75;;;23.80;54.00;;;;;;5081647;28;20127;-59
2022/07/29 11:32:34;;;;;;;4.00;3.70;;;23.80;54.00;;;;;;5079675;28;20489;-59
2022/07/29 11:35:17;;;;;;;3.25;2.95;;;23.80;53.90;;;;;;5074843;28;20052;-60
2022/07/29 11:37:46;;;;;;;4.40;2.95;;;23.80;53.60;;;;;;5075649;28;20779;-60
2022/07/29 11:40:19;;;;;;;3.28;2.97;;;23.80;53.40;;;;;;5079921;28;20435;-59
2022/07/29 11:42:48;;;;;;;3.20;2.90;;;23.80;53.50;;;;;;5077365;28;20500;-59
2022/07/29 11:45:20;;;;;;;3.20;3.00;;;23.80;53.90;;;;;;5072639;28;20040;-59
2022/07/29 11:48:14;;;;;;;7.78;3.58;;;23.80;53.70;;;;;;5076917;28;20135;-59
2022/07/29 11:50:59;;;;;;;2.80;2.60;;;23.80;53.70;;;;;;5074937;28;20052;-59
2022/07/29 11:53:26;;;;;;;4.13;3.08;;;23.80;53.60;;;;;;5079240;28;20050;-59
2022/07/29 11:55:59;;;;;;;4.35;3.47;;;23.80;53.30;;;;;;5075283;28;20063;-59
2022/07/29 11:58:29;;;;;;;3.17;2.97;;;23.80;53.30;;;;;;5080182;28;20080;-59
2022/07/29 12:00:57;;;;;;;4.50;3.08;;;23.70;53.30;;;;;;5076085;28;20412;-57
2022/07/29 12:03:31;;;;;;;5.30;3.22;;;23.80;53.40;;;;;;5076816;28;20055;-60
2022/07/29 12:06:12;;;;;;;2.90;2.70;;;23.70;52.80;;;;;;5081667;28;20074;-60
2022/07/29 12:08:42;;;;;;;3.80;2.90;;;23.70;53.10;;;;;;5074093;28;20097;-59
2022/07/29 12:11:19;;;;;;;4.32;3.92;;;23.50;53.10;;;;;;5082535;28;20056;-59
2022/07/29 12:13:48;;;;;;;3.35;3.05;;;23.40;53.30;;;;;;5081213;28;20126;-58
2022/07/29 12:16:16;;;;;;;3.13;2.72;;;23.20;53.50;;;;;;5084563;28;20063;-59
2022/07/29 12:19:02;;;;;;;4.30;3.28;;;23.10;53.80;;;;;;5077930;28;20500;-59
2022/07/29 12:21:45;;;;;;;3.38;3.00;;;23.00;53.90;;;;;;5082443;28;20093;-59
2022/07/29 12:24:24;;;;;;;3.50;3.05;;;22.90;54.10;;;;;;5085651;28;20059;-59
2022/07/29 12:27:00;;;;;;;3.30;3.00;;;22.80;54.30;;;;;;5085431;28;20079;-59
2022/07/29 12:29:28;;;;;;;4.32;3.40;;;22.70;54.60;;;;;;5079024;28;20136;-59
2022/07/29 12:32:04;;;;;;;3.85;3.28;;;22.70;54.70;;;;;;5087274;28;20062;-59
2022/07/29 12:34:40;;;;;;;3.28;3.00;;;22.60;54.90;;;;;;5081952;28;20052;-60
2022/07/29 12:37:09;;;;;;;3.65;2.78;;;22.50;54.90;;;;;;5083790;28;20079;-59
2022/07/29 12:39:37;;;;;;;4.03;3.45;;;22.50;54.90;;;;;;5085966;28;20416;-59
2022/07/29 12:42:13;;;;;;;3.33;2.97;;;22.50;55.30;;;;;;5082841;28;20048;-59
2022/07/29 12:44:49;;;;;;;3.63;3.10;;;22.50;55.20;;;;;;5086078;28;20409;-59
2022/07/29 12:47:17;;;;;;;4.13;3.10;;;22.40;55.10;;;;;;5087800;28;20383;-59
2022/07/29 12:49:46;;;;;;;4.03;3.15;;;22.40;55.00;;;;;;5082297;28;20044;-58
2022/07/29 12:52:33;;;;;;;5.75;3.05;;;22.40;55.20;;;;;;5080139;28;20048;-59
2022/07/29 12:55:01;;;;;;;5.30;3.45;;;22.40;55.30;;;;;;5080600;28;20075;-59
2022/07/29 12:57:29;;;;;;;3.15;2.85;;;22.30;55.30;;;;;;5080386;28;20052;-58
2022/07/29 13:00:08;;;;;;;3.40;3.10;;;22.30;55.70;;;;;;5078813;28;20072;-58
2022/07/29 13:02:36;;;;;;;3.97;2.85;;;22.30;55.60;;;;;;5080572;28;20433;-59
2022/07/29 13:05:05;;;;;;;5.93;3.40;;;22.30;55.50;;;;;;5076440;28;20494;-59
2022/07/29 13:07:36;;;;;;;4.45;3.55;;;22.30;55.60;;;;;;5080593;28;20139;-59
2022/07/29 13:10:22;;;;;;;4.07;3.37;;;22.30;55.60;;;;;;5085145;28;20046;-59
2022/07/29 13:13:05;;;;;;;4.22;3.10;;;22.20;55.50;;;;;;5074815;28;20143;-59
2022/07/29 13:15:33;;;;;;;5.55;2.95;;;22.30;55.60;;;;;;5078572;28;20083;-58
2022/07/29 13:18:00;;;;;;;3.38;3.10;;;22.20;55.70;;;;;;5081772;28;20099;-58